sensor_id;sensor_type;location;lat;lon;timestamp;P1;durP1;ratioP1;P2;durP2;ratioP2
38879;SDS011;25887;30.194;-97.880;2023-11-18T00:01:06;4.53;;;2.10;;
38879;SDS011;25887;30.194;-97.880;2023-11-18T00:03:34;5.03;;;1.80;;
38879;SDS011;25887;30.194;-97.880;2023-11-18T00:06:00;4.13;;;2.25;;
38879;SDS011;25887;30.194;-97.880;2023-11-18T00:08:26;3.78;;;2.17;;
38879;SDS011;25887;30.194;-97.880;2023-11-18T00:10:53;4.40;;;1.85;;
38879;SDS011;25887;30.194;-97.880;2023-11-18T00:13:19;5.18;;;1.80;;
38879;SDS011;25887;30.194;-97.880;2023-11-18T00:15:45;3.53;;;1.92;;
38879;SDS011;25887;30.194;-97.880;2023-11-18T00:18:13;3.60;;;1.75;;
38879;SDS011;25887;30.194;-97.880;2023-11-18T00:20:39;3.92;;;1.92;;
38879;SDS011;25887;30.194;-97.880;2023-11-18T00:23:05;2.40;;;1.70;;
38879;SDS011;25887;30.194;-97.880;2023-11-18T00:25:31;4.50;;;2.10;;
38879;SDS011;25887;30.194;-97.880;2023-11-18T00:28:00;4.93;;;1.70;;
38879;SDS011;25887;30.194;-97.880;2023-11-18T00:30:27;2.75;;;1.80;;
38879;SDS011;25887;30.194;-97.880;2023-11-18T00:32:53;3.55;;;1.90;;
38879;SDS011;25887;30.194;-97.880;2023-11-18T00:35:19;4.70;;;2.25;;
38879;SDS011;25887;30.194;-97.880;2023-11-18T00:37:45;3.22;;;2.10;;
38879;SDS011;25887;30.194;-97.880;2023-11-18T00:40:13;3.60;;;2.10;;
38879;SDS011;25887;30.194;-97.880;2023-11-18T00:42:39;3.03;;;2.03;;
38879;SDS011;25887;30.194;-97.880;2023-11-18T00:45:05;4.45;;;2.30;;
38879;SDS011;25887;30.194;-97.880;2023-11-18T00:47:32;6.78;;;1.88;;
38879;SDS011;25887;30.194;-97.880;2023-11-18T00:49:59;2.20;;;1.95;;
38879;SDS011;25887;30.194;-97.880;2023-11-18T00:52:27;2.83;;;1.55;;
38879;SDS011;25887;30.194;-97.880;2023-11-18T00:54:53;2.17;;;1.80;;
38879;SDS011;25887;30.194;-97.880;2023-11-18T00:57:20;4.00;;;1.58;;
38879;SDS011;25887;30.194;-97.880;2023-11-18T00:59:46;5.40;;;1.63;;
38879;SDS011;25887;30.194;-97.880;2023-11-18T01:02:12;2.70;;;1.60;;
38879;SDS011;25887;30.194;-97.880;2023-11-18T01:04:40;1.85;;;1.50;;
38879;SDS011;25887;30.194;-97.880;2023-11-18T01:07:06;2.90;;;1.67;;
38879;SDS011;25887;30.194;-97.880;2023-11-18T01:09:33;6.63;;;2.20;;
38879;SDS011;25887;30.194;-97.880;2023-11-18T01:12:04;2.10;;;1.38;;
38879;SDS011;25887;30.194;-97.880;2023-11-18T01:14:38;1.88;;;1.40;;
38879;SDS011;25887;30.194;-97.880;2023-11-18T01:17:06;2.08;;;1.50;;
38879;SDS011;25887;30.194;-97.880;2023-11-18T01:19:32;1.95;;;1.50;;
38879;SDS011;25887;30.194;-97.880;2023-11-18T01:22:01;2.28;;;1.52;;
38879;SDS011;25887;30.194;-97.880;2023-11-18T01:24:31;2.55;;;1.48;;
38879;SDS011;25887;30.194;-97.880;2023-11-18T01:26:58;1.90;;;1.40;;
38879;SDS011;25887;30.194;-97.880;2023-11-18T01:29:25;3.20;;;1.90;;
38879;SDS011;25887;30.194;-97.880;2023-11-18T01:31:52;2.55;;;1.63;;
38879;SDS011;25887;30.194;-97.880;2023-11-18T01:34:20;3.17;;;2.00;;
38879;SDS011;25887;30.194;-97.880;2023-11-18T01:36:47;2.88;;;2.00;;
38879;SDS011;25887;30.194;-97.880;2023-11-18T01:39:18;2.70;;;2.00;;
38879;SDS011;25887;30.194;-97.880;2023-11-18T01:41:45;5.90;;;1.95;;
38879;SDS011;25887;30.194;-97.880;2023-11-18T01:44:11;6.20;;;2.25;;
38879;SDS011;25887;30.194;-97.880;2023-11-18T01:46:41;4.57;;;2.78;;
38879;SDS011;25887;30.194;-97.880;2023-11-18T01:49:11;5.88;;;2.92;;
38879;SDS011;25887;30.194;-97.880;2023-11-18T01:51:40;4.30;;;3.10;;
38879;SDS011;25887;30.194;-97.880;2023-11-18T01:54:09;9.38;;;3.03;;
38879;SDS011;25887;30.194;-97.880;2023-11-18T01:56:43;6.30;;;2.90;;
38879;SDS011;25887;30.194;-97.880;2023-11-18T01:59:11;4.97;;;3.40;;
38879;SDS011;25887;30.194;-97.880;2023-11-18T02:01:47;6.18;;;3.58;;
38879;SDS011;25887;30.194;-97.880;2023-11-18T02:04:15;4.93;;;3.45;;
38879;SDS011;25887;30.194;-97.880;2023-11-18T02:06:44;10.40;;;4.55;;
38879;SDS011;25887;30.194;-97.880;2023-11-18T02:09:16;5.63;;;3.47;;
38879;SDS011;25887;30.194;-97.880;2023-11-18T02:11:57;6.03;;;3.70;;
38879;SDS011;25887;30.194;-97.880;2023-11-18T02:14:35;7.15;;;3.67;;
38879;SDS011;25887;30.194;-97.880;2023-11-18T02:17:05;6.65;;;4.10;;
38879;SDS011;25887;30.194;-97.880;2023-11-18T02:19:35;6.43;;;3.58;;
38879;SDS011;25887;30.194;-97.880;2023-11-18T02:22:16;7.13;;;4.32;;
38879;SDS011;25887;30.194;-97.880;2023-11-18T02:25:01;6.30;;;3.97;;
38879;SDS011;25887;30.194;-97.880;2023-11-18T02:27:31;6.95;;;3.90;;
38879;SDS011;25887;30.194;-97.880;2023-11-18T02:30:01;5.97;;;3.58;;
38879;SDS011;25887;30.194;-97.880;2023-11-18T02:32:33;5.85;;;3.78;;
38879;SDS011;25887;30.194;-97.880;2023-11-18T02:38:02;6.15;;;4.43;;
38879;SDS011;25887;30.194;-97.880;2023-11-18T02:40:34;11.13;;;5.75;;
38879;SDS011;25887;30.194;-97.880;2023-11-18T02:43:04;6.40;;;4.22;;
38879;SDS011;25887;30.194;-97.880;2023-11-18T02:45:31;8.05;;;4.18;;
38879;SDS011;25887;30.194;-97.880;2023-11-18T02:48:14;9.13;;;3.95;;
38879;SDS011;25887;30.194;-97.880;2023-11-18T02:50:43;8.57;;;5.15;;
38879;SDS011;25887;30.194;-97.880;2023-11-18T02:53:09;10.75;;;5.35;;
38879;SDS011;25887;30.194;-97.880;2023-11-18T02:55:35;9.23;;;5.07;;
38879;SDS011;25887;30.194;-97.880;2023-11-18T02:58:01;8.90;;;5.10;;
38879;SDS011;25887;30.194;-97.880;2023-11-18T03:00:28;9.15;;;4.80;;
38879;SDS011;25887;30.194;-97.880;2023-11-18T03:02:54;9.05;;;4.75;;
38879;SDS011;25887;30.194;-97.880;2023-11-18T03:05:21;9.18;;;5.65;;
38879;SDS011;25887;30.194;-97.880;2023-11-18T03:07:47;10.20;;;5.65;;
38879;SDS011;25887;30.194;-97.880;2023-11-18T03:10:19;10.63;;;5.45;;
38879;SDS011;25887;30.194;-97.880;2023-11-18T03:12:49;11.20;;;5.47;;
38879;SDS011;25887;30.194;-97.880;2023-11-18T03:15:16;12.85;;;5.72;;
38879;SDS011;25887;30.194;-97.880;2023-11-18T03:17:44;14.43;;;6.65;;
38879;SDS011;25887;30.194;-97.880;2023-11-18T03:20:15;10.45;;;5.57;;
38879;SDS011;25887;30.194;-97.880;2023-11-18T03:22:46;16.27;;;6.55;;
38879;SDS011;25887;30.194;-97.880;2023-11-18T03:25:16;11.77;;;6.32;;
38879;SDS011;25887;30.194;-97.880;2023-11-18T03:27:44;13.25;;;5.40;;
38879;SDS011;25887;30.194;-97.880;2023-11-18T03:30:11;12.23;;;6.30;;
38879;SDS011;25887;30.194;-97.880;2023-11-18T03:32:38;14.27;;;6.45;;
38879;SDS011;25887;30.194;-97.880;2023-11-18T03:35:07;16.77;;;6.75;;
38879;SDS011;25887;30.194;-97.880;2023-11-18T03:37:40;13.02;;;7.15;;
38879;SDS011;25887;30.194;-97.880;2023-11-18T03:42:34;13.70;;;6.50;;
38879;SDS011;25887;30.194;-97.880;2023-11-18T03:45:02;13.15;;;6.53;;
38879;SDS011;25887;30.194;-97.880;2023-11-18T03:47:29;12.80;;;6.53;;
38879;SDS011;25887;30.194;-97.880;2023-11-18T03:49:56;14.65;;;7.38;;
38879;SDS011;25887;30.194;-97.880;2023-11-18T03:52:23;16.15;;;7.25;;
38879;SDS011;25887;30.194;-97.880;2023-11-18T03:54:50;14.20;;;6.65;;
38879;SDS011;25887;30.194;-97.880;2023-11-18T03:57:16;16.73;;;7.05;;
38879;SDS011;25887;30.194;-97.880;2023-11-18T03:59:45;14.73;;;6.72;;
38879;SDS011;25887;30.194;-97.880;2023-11-18T04:02:12;14.73;;;6.68;;
38879;SDS011;25887;30.194;-97.880;2023-11-18T04:04:38;15.18;;;7.53;;
38879;SDS011;25887;30.194;-97.880;2023-11-18T04:07:04;19.33;;;6.93;;
38879;SDS011;25887;30.194;-97.880;2023-11-18T04:09:32;13.15;;;6.28;;
38879;SDS011;25887;30.194;-97.880;2023-11-18T04:11:58;11.50;;;6.55;;
38879;SDS011;25887;30.194;-97.880;2023-11-18T04:14:25;12.30;;;6.00;;
38879;SDS011;25887;30.194;-97.880;2023-11-18T04:16:51;14.13;;;6.70;;
38879;SDS011;25887;30.194;-97.880;2023-11-18T04:19:18;12.90;;;6.18;;
38879;SDS011;25887;30.194;-97.880;2023-11-18T04:21:46;14.43;;;6.93;;
38879;SDS011;25887;30.194;-97.880;2023-11-18T04:24:14;12.48;;;6.63;;
38879;SDS011;25887;30.194;-97.880;2023-11-18T04:26:41;17.60;;;5.95;;
38879;SDS011;25887;30.194;-97.880;2023-11-18T04:29:07;11.65;;;6.43;;
38879;SDS011;25887;30.194;-97.880;2023-11-18T04:31:36;14.40;;;6.68;;
38879;SDS011;25887;30.194;-97.880;2023-11-18T04:34:02;13.27;;;6.20;;
38879;SDS011;25887;30.194;-97.880;2023-11-18T04:36:32;11.75;;;6.25;;
38879;SDS011;25887;30.194;-97.880;2023-11-18T04:38:58;14.70;;;6.78;;
38879;SDS011;25887;30.194;-97.880;2023-11-18T04:41:25;13.15;;;6.22;;
38879;SDS011;25887;30.194;-97.880;2023-11-18T04:43:51;13.27;;;6.15;;
38879;SDS011;25887;30.194;-97.880;2023-11-18T04:46:18;12.70;;;6.78;;
38879;SDS011;25887;30.194;-97.880;2023-11-18T04:48:45;13.98;;;6.28;;
38879;SDS011;25887;30.194;-97.880;2023-11-18T04:51:11;13.68;;;6.93;;
38879;SDS011;25887;30.194;-97.880;2023-11-18T04:53:37;12.45;;;6.25;;
38879;SDS011;25887;30.194;-97.880;2023-11-18T04:56:04;10.98;;;5.35;;
38879;SDS011;25887;30.194;-97.880;2023-11-18T04:58:35;13.18;;;6.55;;
38879;SDS011;25887;30.194;-97.880;2023-11-18T05:01:05;15.70;;;5.88;;
38879;SDS011;25887;30.194;-97.880;2023-11-18T05:03:31;14.02;;;6.05;;
38879;SDS011;25887;30.194;-97.880;2023-11-18T05:05:58;13.52;;;5.57;;
38879;SDS011;25887;30.194;-97.880;2023-11-18T05:08:27;13.13;;;5.90;;
38879;SDS011;25887;30.194;-97.880;2023-11-18T05:10:55;13.30;;;5.82;;
38879;SDS011;25887;30.194;-97.880;2023-11-18T05:13:22;10.32;;;5.40;;
38879;SDS011;25887;30.194;-97.880;2023-11-18T05:15:49;10.77;;;5.68;;
38879;SDS011;25887;30.194;-97.880;2023-11-18T05:18:15;13.15;;;5.78;;
38879;SDS011;25887;30.194;-97.880;2023-11-18T05:20:43;12.48;;;5.28;;
38879;SDS011;25887;30.194;-97.880;2023-11-18T05:23:10;12.23;;;5.70;;
38879;SDS011;25887;30.194;-97.880;2023-11-18T05:25:39;12.57;;;5.85;;
38879;SDS011;25887;30.194;-97.880;2023-11-18T05:28:13;14.52;;;5.95;;
38879;SDS011;25887;30.194;-97.880;2023-11-18T05:30:41;11.50;;;5.70;;
38879;SDS011;25887;30.194;-97.880;2023-11-18T05:33:10;16.70;;;5.50;;
38879;SDS011;25887;30.194;-97.880;2023-11-18T05:35:42;12.45;;;5.40;;
38879;SDS011;25887;30.194;-97.880;2023-11-18T05:38:14;18.35;;;6.20;;
38879;SDS011;25887;30.194;-97.880;2023-11-18T05:40:47;13.82;;;5.45;;
38879;SDS011;25887;30.194;-97.880;2023-11-18T05:43:23;11.85;;;5.63;;
38879;SDS011;25887;30.194;-97.880;2023-11-18T05:45:55;13.85;;;5.15;;
38879;SDS011;25887;30.194;-97.880;2023-11-18T05:48:51;10.30;;;4.75;;
38879;SDS011;25887;30.194;-97.880;2023-11-18T05:51:25;11.00;;;4.00;;
38879;SDS011;25887;30.194;-97.880;2023-11-18T05:53:52;7.65;;;4.15;;
38879;SDS011;25887;30.194;-97.880;2023-11-18T05:59:41;6.93;;;3.53;;
38879;SDS011;25887;30.194;-97.880;2023-11-18T06:02:16;6.55;;;3.60;;
38879;SDS011;25887;30.194;-97.880;2023-11-18T06:04:45;9.63;;;3.35;;
38879;SDS011;25887;30.194;-97.880;2023-11-18T06:07:11;5.65;;;3.10;;
38879;SDS011;25887;30.194;-97.880;2023-11-18T06:09:40;4.40;;;2.80;;
38879;SDS011;25887;30.194;-97.880;2023-11-18T06:12:09;5.07;;;2.80;;
38879;SDS011;25887;30.194;-97.880;2023-11-18T06:14:43;5.45;;;2.78;;
38879;SDS011;25887;30.194;-97.880;2023-11-18T06:17:11;5.68;;;2.42;;
38879;SDS011;25887;30.194;-97.880;2023-11-18T06:19:39;6.78;;;3.05;;
38879;SDS011;25887;30.194;-97.880;2023-11-18T06:22:06;5.35;;;2.85;;
38879;SDS011;25887;30.194;-97.880;2023-11-18T06:27:24;5.85;;;2.55;;
38879;SDS011;25887;30.194;-97.880;2023-11-18T06:29:52;4.25;;;2.45;;
38879;SDS011;25887;30.194;-97.880;2023-11-18T06:32:20;4.47;;;2.83;;
38879;SDS011;25887;30.194;-97.880;2023-11-18T06:34:46;4.05;;;2.10;;
38879;SDS011;25887;30.194;-97.880;2023-11-18T06:37:14;4.70;;;2.45;;
38879;SDS011;25887;30.194;-97.880;2023-11-18T06:39:49;3.33;;;2.15;;
38879;SDS011;25887;30.194;-97.880;2023-11-18T06:46:33;4.40;;;2.40;;
38879;SDS011;25887;30.194;-97.880;2023-11-18T07:02:33;3.67;;;2.13;;
38879;SDS011;25887;30.194;-97.880;2023-11-18T07:04:59;3.50;;;2.10;;
38879;SDS011;25887;30.194;-97.880;2023-11-18T07:07:25;4.88;;;2.08;;
38879;SDS011;25887;30.194;-97.880;2023-11-18T07:09:51;3.75;;;2.22;;
38879;SDS011;25887;30.194;-97.880;2023-11-18T07:12:17;3.83;;;2.10;;
38879;SDS011;25887;30.194;-97.880;2023-11-18T07:14:44;3.85;;;2.17;;
38879;SDS011;25887;30.194;-97.880;2023-11-18T07:17:13;3.42;;;1.95;;
38879;SDS011;25887;30.194;-97.880;2023-11-18T07:19:39;3.70;;;2.30;;
38879;SDS011;25887;30.194;-97.880;2023-11-18T07:22:06;2.83;;;1.83;;
38879;SDS011;25887;30.194;-97.880;2023-11-18T07:24:32;4.13;;;2.05;;
38879;SDS011;25887;30.194;-97.880;2023-11-18T07:27:17;3.15;;;1.88;;
38879;SDS011;25887;30.194;-97.880;2023-11-18T07:29:44;4.25;;;1.98;;
38879;SDS011;25887;30.194;-97.880;2023-11-18T07:35:06;3.45;;;2.00;;
38879;SDS011;25887;30.194;-97.880;2023-11-18T07:37:37;3.95;;;2.30;;
38879;SDS011;25887;30.194;-97.880;2023-11-18T07:40:14;4.88;;;2.13;;
38879;SDS011;25887;30.194;-97.880;2023-11-18T07:42:55;3.20;;;1.92;;
38879;SDS011;25887;30.194;-97.880;2023-11-18T07:51:53;3.03;;;1.52;;
38879;SDS011;25887;30.194;-97.880;2023-11-18T08:00:50;2.85;;;1.70;;
38879;SDS011;25887;30.194;-97.880;2023-11-18T08:03:20;2.58;;;1.67;;
38879;SDS011;25887;30.194;-97.880;2023-11-18T08:13:26;3.17;;;1.90;;
38879;SDS011;25887;30.194;-97.880;2023-11-18T08:16:22;4.88;;;2.47;;
38879;SDS011;25887;30.194;-97.880;2023-11-18T08:19:52;3.72;;;2.03;;
38879;SDS011;25887;30.194;-97.880;2023-11-18T08:22:18;2.75;;;1.80;;
38879;SDS011;25887;30.194;-97.880;2023-11-18T08:24:58;3.63;;;1.95;;
38879;SDS011;25887;30.194;-97.880;2023-11-18T08:27:24;5.63;;;2.20;;
38879;SDS011;25887;30.194;-97.880;2023-11-18T08:29:50;3.97;;;1.88;;
38879;SDS011;25887;30.194;-97.880;2023-11-18T08:32:28;2.83;;;1.80;;
38879;SDS011;25887;30.194;-97.880;2023-11-18T08:34:55;5.10;;;2.00;;
38879;SDS011;25887;30.194;-97.880;2023-11-18T08:37:23;4.60;;;1.85;;
38879;SDS011;25887;30.194;-97.880;2023-11-18T08:40:03;4.28;;;1.67;;
38879;SDS011;25887;30.194;-97.880;2023-11-18T08:46:10;5.50;;;2.17;;
38879;SDS011;25887;30.194;-97.880;2023-11-18T08:48:37;2.90;;;1.65;;
38879;SDS011;25887;30.194;-97.880;2023-11-18T08:51:03;1.27;;;1.17;;
38879;SDS011;25887;30.194;-97.880;2023-11-18T08:53:39;3.53;;;1.85;;
38879;SDS011;25887;30.194;-97.880;2023-11-18T08:57:07;3.15;;;1.42;;
38879;SDS011;25887;30.194;-97.880;2023-11-18T08:59:49;5.88;;;2.00;;
38879;SDS011;25887;30.194;-97.880;2023-11-18T09:02:19;4.97;;;1.55;;
38879;SDS011;25887;30.194;-97.880;2023-11-18T09:04:49;4.82;;;1.83;;
38879;SDS011;25887;30.194;-97.880;2023-11-18T09:07:17;2.20;;;1.15;;
38879;SDS011;25887;30.194;-97.880;2023-11-18T09:09:44;2.88;;;1.48;;
38879;SDS011;25887;30.194;-97.880;2023-11-18T09:12:11;3.05;;;1.38;;
38879;SDS011;25887;30.194;-97.880;2023-11-18T09:20:51;2.13;;;1.48;;
38879;SDS011;25887;30.194;-97.880;2023-11-18T09:23:21;4.03;;;1.70;;
38879;SDS011;25887;30.194;-97.880;2023-11-18T09:25:53;2.58;;;1.65;;
38879;SDS011;25887;30.194;-97.880;2023-11-18T09:28:20;3.33;;;1.75;;
38879;SDS011;25887;30.194;-97.880;2023-11-18T09:30:49;3.70;;;1.90;;
38879;SDS011;25887;30.194;-97.880;2023-11-18T09:33:21;4.55;;;1.75;;
38879;SDS011;25887;30.194;-97.880;2023-11-18T09:35:54;3.47;;;1.98;;
38879;SDS011;25887;30.194;-97.880;2023-11-18T09:44:58;3.13;;;2.03;;
38879;SDS011;25887;30.194;-97.880;2023-11-18T09:47:47;3.45;;;2.05;;
38879;SDS011;25887;30.194;-97.880;2023-11-18T09:50:29;4.05;;;1.90;;
38879;SDS011;25887;30.194;-97.880;2023-11-18T09:52:58;4.00;;;1.83;;
38879;SDS011;25887;30.194;-97.880;2023-11-18T09:55:44;2.28;;;1.77;;
38879;SDS011;25887;30.194;-97.880;2023-11-18T09:58:59;2.75;;;1.83;;
38879;SDS011;25887;30.194;-97.880;2023-11-18T10:01:33;3.08;;;1.95;;
38879;SDS011;25887;30.194;-97.880;2023-11-18T10:04:04;2.42;;;1.55;;
38879;SDS011;25887;30.194;-97.880;2023-11-18T10:06:40;2.92;;;1.48;;
38879;SDS011;25887;30.194;-97.880;2023-11-18T10:09:44;2.35;;;1.67;;
38879;SDS011;25887;30.194;-97.880;2023-11-18T10:12:15;2.47;;;1.85;;
38879;SDS011;25887;30.194;-97.880;2023-11-18T10:15:08;2.63;;;1.83;;
38879;SDS011;25887;30.194;-97.880;2023-11-18T10:18:21;3.85;;;1.70;;
38879;SDS011;25887;30.194;-97.880;2023-11-18T10:22:00;2.13;;;1.38;;
38879;SDS011;25887;30.194;-97.880;2023-11-18T10:28:06;2.22;;;1.55;;
38879;SDS011;25887;30.194;-97.880;2023-11-18T10:31:06;2.47;;;1.35;;
38879;SDS011;25887;30.194;-97.880;2023-11-18T10:33:47;3.10;;;1.35;;
38879;SDS011;25887;30.194;-97.880;2023-11-18T10:37:10;3.80;;;1.50;;
38879;SDS011;25887;30.194;-97.880;2023-11-18T10:39:43;3.25;;;1.40;;
38879;SDS011;25887;30.194;-97.880;2023-11-18T10:43:17;2.83;;;1.52;;
38879;SDS011;25887;30.194;-97.880;2023-11-18T10:50:28;2.10;;;1.40;;
38879;SDS011;25887;30.194;-97.880;2023-11-18T10:56:16;2.08;;;1.35;;
38879;SDS011;25887;30.194;-97.880;2023-11-18T10:58:58;3.90;;;1.35;;
38879;SDS011;25887;30.194;-97.880;2023-11-18T11:02:31;3.70;;;1.67;;
38879;SDS011;25887;30.194;-97.880;2023-11-18T11:13:00;1.98;;;1.13;;
38879;SDS011;25887;30.194;-97.880;2023-11-18T11:15:30;3.63;;;1.85;;
38879;SDS011;25887;30.194;-97.880;2023-11-18T11:18:08;3.08;;;1.52;;
38879;SDS011;25887;30.194;-97.880;2023-11-18T11:24:05;3.03;;;1.63;;
38879;SDS011;25887;30.194;-97.880;2023-11-18T11:32:44;2.78;;;1.65;;
38879;SDS011;25887;30.194;-97.880;2023-11-18T11:35:30;1.80;;;1.38;;
38879;SDS011;25887;30.194;-97.880;2023-11-18T11:41:54;4.28;;;1.67;;
38879;SDS011;25887;30.194;-97.880;2023-11-18T11:54:09;2.63;;;1.48;;
38879;SDS011;25887;30.194;-97.880;2023-11-18T11:56:44;2.92;;;1.50;;
38879;SDS011;25887;30.194;-97.880;2023-11-18T12:05:23;2.42;;;1.40;;
38879;SDS011;25887;30.194;-97.880;2023-11-18T12:07:52;2.17;;;1.40;;
38879;SDS011;25887;30.194;-97.880;2023-11-18T12:10:30;3.65;;;2.17;;
38879;SDS011;25887;30.194;-97.880;2023-11-18T12:13:07;3.22;;;1.58;;
38879;SDS011;25887;30.194;-97.880;2023-11-18T12:15:54;2.95;;;1.52;;
38879;SDS011;25887;30.194;-97.880;2023-11-18T12:18:29;2.85;;;1.90;;
38879;SDS011;25887;30.194;-97.880;2023-11-18T12:20:59;5.72;;;1.80;;
38879;SDS011;25887;30.194;-97.880;2023-11-18T12:23:28;2.45;;;1.60;;
38879;SDS011;25887;30.194;-97.880;2023-11-18T12:25:59;2.53;;;1.60;;
38879;SDS011;25887;30.194;-97.880;2023-11-18T12:28:29;1.83;;;1.45;;
38879;SDS011;25887;30.194;-97.880;2023-11-18T12:34:24;3.22;;;1.83;;
38879;SDS011;25887;30.194;-97.880;2023-11-18T12:36:58;5.63;;;1.92;;
38879;SDS011;25887;30.194;-97.880;2023-11-18T12:42:30;1.63;;;1.40;;
38879;SDS011;25887;30.194;-97.880;2023-11-18T12:47:52;5.18;;;2.05;;
38879;SDS011;25887;30.194;-97.880;2023-11-18T12:53:50;4.03;;;2.35;;
38879;SDS011;25887;30.194;-97.880;2023-11-18T12:56:21;3.42;;;1.70;;
38879;SDS011;25887;30.194;-97.880;2023-11-18T12:58:51;2.95;;;1.73;;
38879;SDS011;25887;30.194;-97.880;2023-11-18T13:01:19;2.50;;;1.83;;
38879;SDS011;25887;30.194;-97.880;2023-11-18T13:03:45;2.78;;;1.60;;
38879;SDS011;25887;30.194;-97.880;2023-11-18T13:09:34;3.70;;;1.92;;
38879;SDS011;25887;30.194;-97.880;2023-11-18T13:18:43;5.18;;;2.70;;
38879;SDS011;25887;30.194;-97.880;2023-11-18T13:21:17;4.38;;;2.60;;
38879;SDS011;25887;30.194;-97.880;2023-11-18T13:23:45;6.85;;;2.45;;
38879;SDS011;25887;30.194;-97.880;2023-11-18T13:26:13;3.95;;;2.28;;
38879;SDS011;25887;30.194;-97.880;2023-11-18T13:28:40;5.78;;;2.60;;
38879;SDS011;25887;30.194;-97.880;2023-11-18T13:31:09;5.45;;;2.60;;
38879;SDS011;25887;30.194;-97.880;2023-11-18T13:33:38;3.95;;;2.38;;
38879;SDS011;25887;30.194;-97.880;2023-11-18T13:36:08;5.22;;;2.67;;
38879;SDS011;25887;30.194;-97.880;2023-11-18T13:38:38;4.18;;;2.40;;
38879;SDS011;25887;30.194;-97.880;2023-11-18T13:41:06;4.32;;;2.70;;
38879;SDS011;25887;30.194;-97.880;2023-11-18T13:43:44;6.53;;;3.08;;
38879;SDS011;25887;30.194;-97.880;2023-11-18T13:46:14;8.27;;;2.83;;
38879;SDS011;25887;30.194;-97.880;2023-11-18T13:48:52;6.80;;;2.95;;
38879;SDS011;25887;30.194;-97.880;2023-11-18T13:51:19;5.70;;;2.60;;
38879;SDS011;25887;30.194;-97.880;2023-11-18T13:53:47;5.10;;;2.47;;
38879;SDS011;25887;30.194;-97.880;2023-11-18T13:56:13;8.52;;;3.45;;
38879;SDS011;25887;30.194;-97.880;2023-11-18T13:58:42;6.60;;;2.97;;
38879;SDS011;25887;30.194;-97.880;2023-11-18T14:01:11;6.45;;;3.00;;
38879;SDS011;25887;30.194;-97.880;2023-11-18T14:03:39;6.90;;;3.20;;
38879;SDS011;25887;30.194;-97.880;2023-11-18T14:06:08;6.30;;;3.40;;
38879;SDS011;25887;30.194;-97.880;2023-11-18T14:08:38;10.05;;;3.65;;
38879;SDS011;25887;30.194;-97.880;2023-11-18T14:11:05;6.05;;;3.13;;
38879;SDS011;25887;30.194;-97.880;2023-11-18T14:13:34;8.40;;;3.03;;
38879;SDS011;25887;30.194;-97.880;2023-11-18T14:16:01;11.65;;;3.08;;
38879;SDS011;25887;30.194;-97.880;2023-11-18T14:18:29;8.20;;;3.72;;
38879;SDS011;25887;30.194;-97.880;2023-11-18T14:20:55;6.80;;;3.42;;
38879;SDS011;25887;30.194;-97.880;2023-11-18T14:23:22;6.60;;;3.35;;
38879;SDS011;25887;30.194;-97.880;2023-11-18T14:25:48;9.18;;;3.40;;
38879;SDS011;25887;30.194;-97.880;2023-11-18T14:28:15;10.70;;;3.70;;
38879;SDS011;25887;30.194;-97.880;2023-11-18T14:30:41;11.20;;;3.88;;
38879;SDS011;25887;30.194;-97.880;2023-11-18T14:33:07;10.18;;;4.38;;
38879;SDS011;25887;30.194;-97.880;2023-11-18T14:35:34;9.85;;;3.88;;
38879;SDS011;25887;30.194;-97.880;2023-11-18T14:38:01;10.73;;;3.85;;
38879;SDS011;25887;30.194;-97.880;2023-11-18T14:40:27;11.38;;;4.28;;
38879;SDS011;25887;30.194;-97.880;2023-11-18T14:42:54;9.07;;;4.38;;
38879;SDS011;25887;30.194;-97.880;2023-11-18T14:45:21;8.90;;;4.50;;
38879;SDS011;25887;30.194;-97.880;2023-11-18T14:47:47;9.93;;;3.83;;
38879;SDS011;25887;30.194;-97.880;2023-11-18T14:50:22;9.18;;;4.38;;
38879;SDS011;25887;30.194;-97.880;2023-11-18T14:52:51;7.95;;;3.97;;
38879;SDS011;25887;30.194;-97.880;2023-11-18T14:55:23;10.50;;;5.07;;
38879;SDS011;25887;30.194;-97.880;2023-11-18T14:57:50;9.35;;;4.50;;
38879;SDS011;25887;30.194;-97.880;2023-11-18T15:00:17;11.88;;;4.85;;
38879;SDS011;25887;30.194;-97.880;2023-11-18T15:02:53;9.57;;;4.82;;
38879;SDS011;25887;30.194;-97.880;2023-11-18T15:05:23;10.25;;;4.22;;
38879;SDS011;25887;30.194;-97.880;2023-11-18T15:07:50;9.15;;;4.43;;
38879;SDS011;25887;30.194;-97.880;2023-11-18T15:10:18;10.65;;;4.65;;
38879;SDS011;25887;30.194;-97.880;2023-11-18T15:12:48;9.50;;;4.30;;
38879;SDS011;25887;30.194;-97.880;2023-11-18T15:15:23;13.38;;;5.15;;
38879;SDS011;25887;30.194;-97.880;2023-11-18T15:18:01;10.57;;;4.63;;
38879;SDS011;25887;30.194;-97.880;2023-11-18T15:20:38;9.57;;;4.15;;
38879;SDS011;25887;30.194;-97.880;2023-11-18T15:23:10;8.25;;;4.45;;
38879;SDS011;25887;30.194;-97.880;2023-11-18T15:25:39;9.23;;;4.03;;
38879;SDS011;25887;30.194;-97.880;2023-11-18T15:28:08;8.35;;;4.50;;
38879;SDS011;25887;30.194;-97.880;2023-11-18T15:30:37;11.57;;;4.88;;
38879;SDS011;25887;30.194;-97.880;2023-11-18T15:33:06;7.75;;;4.20;;
38879;SDS011;25887;30.194;-97.880;2023-11-18T15:35:35;12.45;;;4.78;;
38879;SDS011;25887;30.194;-97.880;2023-11-18T15:38:11;9.07;;;4.28;;
38879;SDS011;25887;30.194;-97.880;2023-11-18T15:40:42;8.35;;;3.78;;
38879;SDS011;25887;30.194;-97.880;2023-11-18T15:43:09;9.07;;;3.83;;
38879;SDS011;25887;30.194;-97.880;2023-11-18T15:45:55;10.65;;;4.40;;
38879;SDS011;25887;30.194;-97.880;2023-11-18T15:48:24;9.32;;;4.22;;
38879;SDS011;25887;30.194;-97.880;2023-11-18T15:50:54;10.07;;;4.65;;
38879;SDS011;25887;30.194;-97.880;2023-11-18T15:53:20;8.95;;;4.07;;
38879;SDS011;25887;30.194;-97.880;2023-11-18T15:55:48;6.88;;;3.72;;
38879;SDS011;25887;30.194;-97.880;2023-11-18T15:58:14;12.70;;;4.25;;
38879;SDS011;25887;30.194;-97.880;2023-11-18T16:00:41;8.20;;;3.90;;
38879;SDS011;25887;30.194;-97.880;2023-11-18T16:03:08;7.22;;;3.78;;
38879;SDS011;25887;30.194;-97.880;2023-11-18T16:05:34;8.95;;;4.03;;
38879;SDS011;25887;30.194;-97.880;2023-11-18T16:08:02;9.55;;;3.70;;
38879;SDS011;25887;30.194;-97.880;2023-11-18T16:10:32;10.85;;;4.32;;
38879;SDS011;25887;30.194;-97.880;2023-11-18T16:12:58;9.90;;;3.92;;
38879;SDS011;25887;30.194;-97.880;2023-11-18T16:18:48;8.93;;;4.43;;
38879;SDS011;25887;30.194;-97.880;2023-11-18T16:21:16;11.15;;;4.72;;
38879;SDS011;25887;30.194;-97.880;2023-11-18T16:26:41;5.50;;;3.15;;
38879;SDS011;25887;30.194;-97.880;2023-11-18T16:29:07;6.95;;;3.97;;
38879;SDS011;25887;30.194;-97.880;2023-11-18T16:31:33;6.72;;;3.45;;
38879;SDS011;25887;30.194;-97.880;2023-11-18T16:34:00;7.55;;;4.32;;
38879;SDS011;25887;30.194;-97.880;2023-11-18T16:36:28;6.47;;;3.38;;
38879;SDS011;25887;30.194;-97.880;2023-11-18T16:38:54;9.45;;;3.40;;
38879;SDS011;25887;30.194;-97.880;2023-11-18T16:41:23;6.25;;;3.80;;
38879;SDS011;25887;30.194;-97.880;2023-11-18T16:43:50;6.75;;;3.40;;
38879;SDS011;25887;30.194;-97.880;2023-11-18T16:46:16;6.97;;;3.63;;
38879;SDS011;25887;30.194;-97.880;2023-11-18T16:48:43;6.35;;;3.50;;
38879;SDS011;25887;30.194;-97.880;2023-11-18T16:51:09;9.85;;;4.10;;
38879;SDS011;25887;30.194;-97.880;2023-11-18T16:53:35;7.78;;;3.85;;
38879;SDS011;25887;30.194;-97.880;2023-11-18T16:56:01;7.00;;;3.55;;
38879;SDS011;25887;30.194;-97.880;2023-11-18T16:58:30;8.05;;;3.38;;
38879;SDS011;25887;30.194;-97.880;2023-11-18T17:00:56;6.93;;;3.53;;
38879;SDS011;25887;30.194;-97.880;2023-11-18T17:03:23;5.10;;;2.70;;
38879;SDS011;25887;30.194;-97.880;2023-11-18T17:05:49;6.63;;;3.45;;
38879;SDS011;25887;30.194;-97.880;2023-11-18T17:08:15;4.78;;;2.78;;